sensor_id;sensor_type;location;lat;lon;timestamp;temperature;humidity
5617;DHT22;2830;50.656;7.568;2023-09-19T00:01:44;15.40;99.90
5617;DHT22;2830;50.656;7.568;2023-09-19T00:04:12;15.40;99.90
5617;DHT22;2830;50.656;7.568;2023-09-19T00:06:39;15.40;99.90
5617;DHT22;2830;50.656;7.568;2023-09-19T00:09:06;15.20;99.90
5617;DHT22;2830;50.656;7.568;2023-09-19T00:11:37;15.10;99.90
5617;DHT22;2830;50.656;7.568;2023-09-19T00:14:05;15.00;99.90
5617;DHT22;2830;50.656;7.568;2023-09-19T00:16:34;15.00;99.90
5617;DHT22;2830;50.656;7.568;2023-09-19T00:19:01;15.00;99.90
5617;DHT22;2830;50.656;7.568;2023-09-19T00:21:27;14.90;99.90
5617;DHT22;2830;50.656;7.568;2023-09-19T00:23:54;15.00;99.90
5617;DHT22;2830;50.656;7.568;2023-09-19T00:26:21;14.90;99.90
5617;DHT22;2830;50.656;7.568;2023-09-19T00:28:48;14.90;99.90
5617;DHT22;2830;50.656;7.568;2023-09-19T00:31:15;14.90;99.90
5617;DHT22;2830;50.656;7.568;2023-09-19T00:33:42;14.80;99.90
5617;DHT22;2830;50.656;7.568;2023-09-19T00:36:09;14.70;99.90
5617;DHT22;2830;50.656;7.568;2023-09-19T00:38:36;14.60;99.90
5617;DHT22;2830;50.656;7.568;2023-09-19T00:41:02;14.60;99.90
5617;DHT22;2830;50.656;7.568;2023-09-19T00:43:29;14.50;99.90
5617;DHT22;2830;50.656;7.568;2023-09-19T00:46:01;14.40;99.90
5617;DHT22;2830;50.656;7.568;2023-09-19T00:48:30;14.40;99.90
5617;DHT22;2830;50.656;7.568;2023-09-19T00:50:59;14.40;99.90
5617;DHT22;2830;50.656;7.568;2023-09-19T00:53:30;14.30;99.90
5617;DHT22;2830;50.656;7.568;2023-09-19T00:55:57;14.30;99.90
5617;DHT22;2830;50.656;7.568;2023-09-19T00:58:24;14.30;99.90
5617;DHT22;2830;50.656;7.568;2023-09-19T01:00:51;14.30;99.90
5617;DHT22;2830;50.656;7.568;2023-09-19T01:03:18;14.20;99.90
5617;DHT22;2830;50.656;7.568;2023-09-19T01:05:45;14.20;99.90
5617;DHT22;2830;50.656;7.568;2023-09-19T01:08:12;14.10;99.90
5617;DHT22;2830;50.656;7.568;2023-09-19T01:10:46;14.10;99.90
5617;DHT22;2830;50.656;7.568;2023-09-19T01:13:34;14.00;99.90
5617;DHT22;2830;50.656;7.568;2023-09-19T01:16:42;13.90;99.90
5617;DHT22;2830;50.656;7.568;2023-09-19T01:19:44;13.90;99.90
5617;DHT22;2830;50.656;7.568;2023-09-19T01:22:28;14.00;99.90
5617;DHT22;2830;50.656;7.568;2023-09-19T01:30:35;13.90;99.90
5617;DHT22;2830;50.656;7.568;2023-09-19T01:33:06;14.00;99.90
5617;DHT22;2830;50.656;7.568;2023-09-19T01:35:33;13.90;99.90
5617;DHT22;2830;50.656;7.568;2023-09-19T01:38:00;13.90;99.90
5617;DHT22;2830;50.656;7.568;2023-09-19T01:40:27;14.00;99.90
5617;DHT22;2830;50.656;7.568;2023-09-19T01:43:10;14.00;99.90
5617;DHT22;2830;50.656;7.568;2023-09-19T01:48:38;14.00;99.90
5617;DHT22;2830;50.656;7.568;2023-09-19T01:51:07;14.10;99.90
5617;DHT22;2830;50.656;7.568;2023-09-19T01:53:51;14.10;99.90
5617;DHT22;2830;50.656;7.568;2023-09-19T01:56:28;14.10;99.90
5617;DHT22;2830;50.656;7.568;2023-09-19T01:59:04;14.30;99.90
5617;DHT22;2830;50.656;7.568;2023-09-19T02:01:33;14.30;99.90
5617;DHT22;2830;50.656;7.568;2023-09-19T02:04:01;14.40;99.90
5617;DHT22;2830;50.656;7.568;2023-09-19T02:06:29;14.50;99.90
5617;DHT22;2830;50.656;7.568;2023-09-19T02:08:56;14.50;99.90
5617;DHT22;2830;50.656;7.568;2023-09-19T02:11:22;14.60;99.90
5617;DHT22;2830;50.656;7.568;2023-09-19T02:13:50;14.70;99.90
5617;DHT22;2830;50.656;7.568;2023-09-19T02:16:20;14.80;99.90
5617;DHT22;2830;50.656;7.568;2023-09-19T02:18:48;14.80;99.90
5617;DHT22;2830;50.656;7.568;2023-09-19T02:21:19;14.90;99.90
5617;DHT22;2830;50.656;7.568;2023-09-19T02:23:48;15.00;99.90
5617;DHT22;2830;50.656;7.568;2023-09-19T02:26:14;15.00;99.90
5617;DHT22;2830;50.656;7.568;2023-09-19T02:28:42;15.00;99.90
5617;DHT22;2830;50.656;7.568;2023-09-19T02:31:09;15.00;99.90
5617;DHT22;2830;50.656;7.568;2023-09-19T02:33:36;15.00;99.90
5617;DHT22;2830;50.656;7.568;2023-09-19T02:36:04;15.00;99.90
5617;DHT22;2830;50.656;7.568;2023-09-19T02:38:31;15.00;99.90
5617;DHT22;2830;50.656;7.568;2023-09-19T02:40:58;15.10;99.90
5617;DHT22;2830;50.656;7.568;2023-09-19T02:43:25;15.00;99.90
5617;DHT22;2830;50.656;7.568;2023-09-19T02:45:52;15.00;99.90
5617;DHT22;2830;50.656;7.568;2023-09-19T02:48:23;15.00;99.90
5617;DHT22;2830;50.656;7.568;2023-09-19T02:50:51;15.10;99.90
5617;DHT22;2830;50.656;7.568;2023-09-19T02:53:19;15.10;99.90
5617;DHT22;2830;50.656;7.568;2023-09-19T02:55:47;15.10;99.90
5617;DHT22;2830;50.656;7.568;2023-09-19T02:58:14;15.00;99.90
5617;DHT22;2830;50.656;7.568;2023-09-19T03:00:42;15.10;99.90
5617;DHT22;2830;50.656;7.568;2023-09-19T03:03:09;15.00;99.90
5617;DHT22;2830;50.656;7.568;2023-09-19T03:05:36;15.00;99.90
5617;DHT22;2830;50.656;7.568;2023-09-19T03:08:07;14.90;99.90
5617;DHT22;2830;50.656;7.568;2023-09-19T03:10:34;14.90;99.90
5617;DHT22;2830;50.656;7.568;2023-09-19T03:13:04;15.10;99.90
5617;DHT22;2830;50.656;7.568;2023-09-19T03:15:30;14.90;99.90
5617;DHT22;2830;50.656;7.568;2023-09-19T03:17:57;15.00;99.90
5617;DHT22;2830;50.656;7.568;2023-09-19T03:20:26;15.00;99.90
5617;DHT22;2830;50.656;7.568;2023-09-19T03:22:53;14.90;99.90
5617;DHT22;2830;50.656;7.568;2023-09-19T03:25:20;14.90;99.90
5617;DHT22;2830;50.656;7.568;2023-09-19T03:27:49;14.80;99.90
5617;DHT22;2830;50.656;7.568;2023-09-19T03:30:16;14.60;99.90
5617;DHT22;2830;50.656;7.568;2023-09-19T03:32:44;14.60;99.90
5617;DHT22;2830;50.656;7.568;2023-09-19T03:35:12;14.60;99.90
5617;DHT22;2830;50.656;7.568;2023-09-19T03:37:41;14.50;99.90
5617;DHT22;2830;50.656;7.568;2023-09-19T03:40:09;14.40;99.90
5617;DHT22;2830;50.656;7.568;2023-09-19T03:42:41;14.40;99.90
5617;DHT22;2830;50.656;7.568;2023-09-19T03:45:08;14.30;99.90
5617;DHT22;2830;50.656;7.568;2023-09-19T03:47:42;14.20;99.90
5617;DHT22;2830;50.656;7.568;2023-09-19T03:50:09;14.10;99.90
5617;DHT22;2830;50.656;7.568;2023-09-19T03:52:41;14.10;99.90
5617;DHT22;2830;50.656;7.568;2023-09-19T03:55:08;13.90;99.90
5617;DHT22;2830;50.656;7.568;2023-09-19T03:57:37;13.90;99.90
5617;DHT22;2830;50.656;7.568;2023-09-19T04:00:05;13.80;99.90
5617;DHT22;2830;50.656;7.568;2023-09-19T04:02:39;13.80;99.90
5617;DHT22;2830;50.656;7.568;2023-09-19T04:05:07;13.70;99.90
5617;DHT22;2830;50.656;7.568;2023-09-19T04:07:33;13.70;99.90
5617;DHT22;2830;50.656;7.568;2023-09-19T04:10:01;13.60;99.90
5617;DHT22;2830;50.656;7.568;2023-09-19T04:12:28;13.60;99.90
5617;DHT22;2830;50.656;7.568;2023-09-19T04:14:54;13.50;99.90
5617;DHT22;2830;50.656;7.568;2023-09-19T04:17:21;13.40;99.90
5617;DHT22;2830;50.656;7.568;2023-09-19T04:19:50;13.40;99.90
5617;DHT22;2830;50.656;7.568;2023-09-19T04:22:16;13.30;99.90
5617;DHT22;2830;50.656;7.568;2023-09-19T04:24:43;13.30;99.90
5617;DHT22;2830;50.656;7.568;2023-09-19T04:27:10;13.20;99.90
5617;DHT22;2830;50.656;7.568;2023-09-19T04:29:39;13.20;99.90
5617;DHT22;2830;50.656;7.568;2023-09-19T04:32:06;13.20;99.90
5617;DHT22;2830;50.656;7.568;2023-09-19T04:34:34;13.20;99.90
5617;DHT22;2830;50.656;7.568;2023-09-19T04:37:01;13.10;99.90
5617;DHT22;2830;50.656;7.568;2023-09-19T04:39:28;13.20;99.90
5617;DHT22;2830;50.656;7.568;2023-09-19T04:41:55;13.20;99.90
5617;DHT22;2830;50.656;7.568;2023-09-19T04:44:22;13.20;99.90
5617;DHT22;2830;50.656;7.568;2023-09-19T04:46:48;13.20;99.90
5617;DHT22;2830;50.656;7.568;2023-09-19T04:49:15;13.30;99.90
5617;DHT22;2830;50.656;7.568;2023-09-19T04:51:42;13.30;99.90
5617;DHT22;2830;50.656;7.568;2023-09-19T04:54:09;13.30;99.90
5617;DHT22;2830;50.656;7.568;2023-09-19T04:56:36;13.20;99.90
5617;DHT22;2830;50.656;7.568;2023-09-19T04:59:02;13.20;99.90
5617;DHT22;2830;50.656;7.568;2023-09-19T05:01:29;13.10;99.90
5617;DHT22;2830;50.656;7.568;2023-09-19T05:03:56;13.10;99.90
5617;DHT22;2830;50.656;7.568;2023-09-19T05:06:23;13.10;99.90
5617;DHT22;2830;50.656;7.568;2023-09-19T05:08:50;13.00;99.90
5617;DHT22;2830;50.656;7.568;2023-09-19T05:11:19;13.00;99.90
5617;DHT22;2830;50.656;7.568;2023-09-19T05:13:51;13.00;99.90
5617;DHT22;2830;50.656;7.568;2023-09-19T05:16:19;13.00;99.90
5617;DHT22;2830;50.656;7.568;2023-09-19T05:18:46;12.90;99.90
5617;DHT22;2830;50.656;7.568;2023-09-19T05:21:13;12.90;99.90
5617;DHT22;2830;50.656;7.568;2023-09-19T05:23:39;12.90;99.90
5617;DHT22;2830;50.656;7.568;2023-09-19T05:26:06;12.90;99.90
5617;DHT22;2830;50.656;7.568;2023-09-19T05:28:33;12.90;99.90
5617;DHT22;2830;50.656;7.568;2023-09-19T05:31:01;12.90;99.90
5617;DHT22;2830;50.656;7.568;2023-09-19T05:33:31;12.90;99.90
5617;DHT22;2830;50.656;7.568;2023-09-19T05:35:59;12.80;99.90
5617;DHT22;2830;50.656;7.568;2023-09-19T05:38:26;12.80;99.90
5617;DHT22;2830;50.656;7.568;2023-09-19T05:40:54;12.80;99.90
5617;DHT22;2830;50.656;7.568;2023-09-19T05:43:21;12.80;99.90
5617;DHT22;2830;50.656;7.568;2023-09-19T05:45:48;12.80;99.90
5617;DHT22;2830;50.656;7.568;2023-09-19T05:48:15;12.80;99.90
5617;DHT22;2830;50.656;7.568;2023-09-19T05:50:43;12.90;99.90
5617;DHT22;2830;50.656;7.568;2023-09-19T05:53:13;12.90;99.90
5617;DHT22;2830;50.656;7.568;2023-09-19T05:55:41;12.90;99.90
5617;DHT22;2830;50.656;7.568;2023-09-19T05:58:08;12.90;99.90
5617;DHT22;2830;50.656;7.568;2023-09-19T06:00:36;12.90;99.90
5617;DHT22;2830;50.656;7.568;2023-09-19T06:03:05;12.90;99.90
5617;DHT22;2830;50.656;7.568;2023-09-19T06:05:32;13.00;99.90
5617;DHT22;2830;50.656;7.568;2023-09-19T06:07:59;13.00;99.90
5617;DHT22;2830;50.656;7.568;2023-09-19T06:10:27;13.10;99.90
5617;DHT22;2830;50.656;7.568;2023-09-19T06:12:58;13.10;99.90
5617;DHT22;2830;50.656;7.568;2023-09-19T06:15:25;13.20;99.90
5617;DHT22;2830;50.656;7.568;2023-09-19T06:17:54;13.30;99.90
5617;DHT22;2830;50.656;7.568;2023-09-19T06:20:26;13.40;99.90
5617;DHT22;2830;50.656;7.568;2023-09-19T06:22:53;13.50;99.90
5617;DHT22;2830;50.656;7.568;2023-09-19T06:25:21;13.60;99.90
5617;DHT22;2830;50.656;7.568;2023-09-19T06:27:51;13.70;99.90
5617;DHT22;2830;50.656;7.568;2023-09-19T06:30:23;13.80;99.90
5617;DHT22;2830;50.656;7.568;2023-09-19T06:32:58;14.00;99.90
5617;DHT22;2830;50.656;7.568;2023-09-19T06:35:26;14.10;99.90
5617;DHT22;2830;50.656;7.568;2023-09-19T06:37:54;14.20;99.90
5617;DHT22;2830;50.656;7.568;2023-09-19T06:40:21;14.30;99.90
5617;DHT22;2830;50.656;7.568;2023-09-19T06:42:50;14.40;99.90
5617;DHT22;2830;50.656;7.568;2023-09-19T06:45:17;14.50;99.90
5617;DHT22;2830;50.656;7.568;2023-09-19T06:47:46;14.50;99.90
5617;DHT22;2830;50.656;7.568;2023-09-19T06:50:22;14.60;99.90
5617;DHT22;2830;50.656;7.568;2023-09-19T06:52:52;14.60;99.90
5617;DHT22;2830;50.656;7.568;2023-09-19T06:55:22;14.70;99.90
5617;DHT22;2830;50.656;7.568;2023-09-19T06:57:52;14.80;99.90
5617;DHT22;2830;50.656;7.568;2023-09-19T07:00:21;15.00;99.90
5617;DHT22;2830;50.656;7.568;2023-09-19T07:02:59;15.10;99.90
5617;DHT22;2830;50.656;7.568;2023-09-19T07:05:28;15.20;99.90
5617;DHT22;2830;50.656;7.568;2023-09-19T07:07:55;15.30;99.90
5617;DHT22;2830;50.656;7.568;2023-09-19T07:10:22;15.40;99.90
5617;DHT22;2830;50.656;7.568;2023-09-19T07:13:01;15.60;99.90
5617;DHT22;2830;50.656;7.568;2023-09-19T07:15:28;15.60;99.90
5617;DHT22;2830;50.656;7.568;2023-09-19T07:17:57;15.60;99.90
5617;DHT22;2830;50.656;7.568;2023-09-19T07:20:24;15.70;99.90
5617;DHT22;2830;50.656;7.568;2023-09-19T07:22:58;15.80;99.90
5617;DHT22;2830;50.656;7.568;2023-09-19T07:25:30;15.80;99.90
5617;DHT22;2830;50.656;7.568;2023-09-19T07:27:58;15.90;99.90
5617;DHT22;2830;50.656;7.568;2023-09-19T07:30:27;16.10;99.90
5617;DHT22;2830;50.656;7.568;2023-09-19T07:32:54;16.40;99.90
5617;DHT22;2830;50.656;7.568;2023-09-19T07:35:21;16.70;99.90
5617;DHT22;2830;50.656;7.568;2023-09-19T07:37:49;16.70;99.90
5617;DHT22;2830;50.656;7.568;2023-09-19T07:40:18;16.90;99.90
5617;DHT22;2830;50.656;7.568;2023-09-19T07:42:45;17.00;99.90
5617;DHT22;2830;50.656;7.568;2023-09-19T07:45:13;17.20;99.90
5617;DHT22;2830;50.656;7.568;2023-09-19T07:47:44;17.50;99.90
5617;DHT22;2830;50.656;7.568;2023-09-19T07:50:13;17.60;99.90
5617;DHT22;2830;50.656;7.568;2023-09-19T07:52:40;17.70;99.90
5617;DHT22;2830;50.656;7.568;2023-09-19T07:55:07;17.90;99.90
5617;DHT22;2830;50.656;7.568;2023-09-19T07:57:38;18.00;99.90
5617;DHT22;2830;50.656;7.568;2023-09-19T08:00:05;17.50;99.90
5617;DHT22;2830;50.656;7.568;2023-09-19T08:02:37;17.30;99.90
5617;DHT22;2830;50.656;7.568;2023-09-19T08:05:06;17.20;99.90
5617;DHT22;2830;50.656;7.568;2023-09-19T08:07:34;17.40;99.90
5617;DHT22;2830;50.656;7.568;2023-09-19T08:10:03;17.50;99.90
5617;DHT22;2830;50.656;7.568;2023-09-19T08:12:30;17.50;99.90
5617;DHT22;2830;50.656;7.568;2023-09-19T08:14:57;17.80;99.90
5617;DHT22;2830;50.656;7.568;2023-09-19T08:17:24;17.80;99.90
5617;DHT22;2830;50.656;7.568;2023-09-19T08:19:51;18.10;99.90
5617;DHT22;2830;50.656;7.568;2023-09-19T08:22:20;18.30;99.90
5617;DHT22;2830;50.656;7.568;2023-09-19T08:24:46;18.40;99.90
5617;DHT22;2830;50.656;7.568;2023-09-19T08:27:15;18.50;99.90
5617;DHT22;2830;50.656;7.568;2023-09-19T08:29:41;18.60;99.90
5617;DHT22;2830;50.656;7.568;2023-09-19T08:32:09;18.90;99.90
5617;DHT22;2830;50.656;7.568;2023-09-19T08:34:36;19.20;99.90
5617;DHT22;2830;50.656;7.568;2023-09-19T08:37:05;19.50;99.90
5617;DHT22;2830;50.656;7.568;2023-09-19T08:39:31;19.20;99.90
5617;DHT22;2830;50.656;7.568;2023-09-19T08:42:01;19.20;99.90
5617;DHT22;2830;50.656;7.568;2023-09-19T08:44:28;19.30;99.90
5617;DHT22;2830;50.656;7.568;2023-09-19T08:47:10;19.60;99.90
5617;DHT22;2830;50.656;7.568;2023-09-19T08:49:58;20.10;99.90
5617;DHT22;2830;50.656;7.568;2023-09-19T08:52:56;20.30;99.90
5617;DHT22;2830;50.656;7.568;2023-09-19T08:55:30;20.00;99.90
5617;DHT22;2830;50.656;7.568;2023-09-19T08:58:03;20.10;99.90
5617;DHT22;2830;50.656;7.568;2023-09-19T09:00:35;20.70;99.90
5617;DHT22;2830;50.656;7.568;2023-09-19T09:03:03;20.60;99.90
5617;DHT22;2830;50.656;7.568;2023-09-19T09:05:35;20.70;99.90
5617;DHT22;2830;50.656;7.568;2023-09-19T09:08:05;21.00;99.90
5617;DHT22;2830;50.656;7.568;2023-09-19T09:10:32;20.80;99.90
5617;DHT22;2830;50.656;7.568;2023-09-19T09:12:59;20.40;99.90
5617;DHT22;2830;50.656;7.568;2023-09-19T09:15:28;20.40;99.90
5617;DHT22;2830;50.656;7.568;2023-09-19T09:17:56;20.40;99.90
5617;DHT22;2830;50.656;7.568;2023-09-19T09:20:24;20.50;99.90
5617;DHT22;2830;50.656;7.568;2023-09-19T09:22:55;20.50;99.90
5617;DHT22;2830;50.656;7.568;2023-09-19T09:25:23;20.70;99.90
5617;DHT22;2830;50.656;7.568;2023-09-19T09:28:01;20.50;99.90
5617;DHT22;2830;50.656;7.568;2023-09-19T09:30:36;20.20;99.90
5617;DHT22;2830;50.656;7.568;2023-09-19T09:33:11;20.20;99.90
5617;DHT22;2830;50.656;7.568;2023-09-19T09:35:59;20.10;99.90
5617;DHT22;2830;50.656;7.568;2023-09-19T09:38:46;20.20;99.90
5617;DHT22;2830;50.656;7.568;2023-09-19T09:41:17;20.60;99.90
5617;DHT22;2830;50.656;7.568;2023-09-19T09:43:54;20.40;99.90
5617;DHT22;2830;50.656;7.568;2023-09-19T09:46:21;20.80;99.90
5617;DHT22;2830;50.656;7.568;2023-09-19T09:51:44;21.40;99.80
5617;DHT22;2830;50.656;7.568;2023-09-19T09:54:25;21.40;99.90
5617;DHT22;2830;50.656;7.568;2023-09-19T09:56:58;21.00;99.90
5617;DHT22;2830;50.656;7.568;2023-09-19T10:02:14;20.40;99.90
5617;DHT22;2830;50.656;7.568;2023-09-19T10:04:47;20.80;99.90
5617;DHT22;2830;50.656;7.568;2023-09-19T10:07:35;21.70;98.20
5617;DHT22;2830;50.656;7.568;2023-09-19T10:10:10;21.70;97.90
5617;DHT22;2830;50.656;7.568;2023-09-19T10:12:44;22.00;96.10
5617;DHT22;2830;50.656;7.568;2023-09-19T10:15:17;22.00;96.70
5617;DHT22;2830;50.656;7.568;2023-09-19T10:17:47;22.60;96.40
5617;DHT22;2830;50.656;7.568;2023-09-19T10:20:18;23.00;94.70
5617;DHT22;2830;50.656;7.568;2023-09-19T10:23:11;23.40;94.70
5617;DHT22;2830;50.656;7.568;2023-09-19T10:25:43;23.00;93.70
5617;DHT22;2830;50.656;7.568;2023-09-19T10:28:11;22.80;96.00
5617;DHT22;2830;50.656;7.568;2023-09-19T10:30:47;23.50;94.60
5617;DHT22;2830;50.656;7.568;2023-09-19T10:33:20;24.10;96.40
5617;DHT22;2830;50.656;7.568;2023-09-19T10:35:49;24.60;93.60
5617;DHT22;2830;50.656;7.568;2023-09-19T10:38:19;25.00;91.40
5617;DHT22;2830;50.656;7.568;2023-09-19T10:40:55;25.50;91.90
5617;DHT22;2830;50.656;7.568;2023-09-19T10:43:28;26.50;89.70
5617;DHT22;2830;50.656;7.568;2023-09-19T10:46:06;26.20;87.10
5617;DHT22;2830;50.656;7.568;2023-09-19T10:48:40;26.00;85.60
5617;DHT22;2830;50.656;7.568;2023-09-19T10:51:18;25.60;86.20
5617;DHT22;2830;50.656;7.568;2023-09-19T10:53:52;25.00;86.70
5617;DHT22;2830;50.656;7.568;2023-09-19T10:56:32;24.80;86.90
5617;DHT22;2830;50.656;7.568;2023-09-19T10:59:11;25.90;89.90
5617;DHT22;2830;50.656;7.568;2023-09-19T11:04:22;26.80;80.90
5617;DHT22;2830;50.656;7.568;2023-09-19T11:07:19;26.50;79.00
5617;DHT22;2830;50.656;7.568;2023-09-19T11:09:53;26.60;77.70
5617;DHT22;2830;50.656;7.568;2023-09-19T11:15:03;27.10;83.90
5617;DHT22;2830;50.656;7.568;2023-09-19T11:17:36;26.90;75.70
5617;DHT22;2830;50.656;7.568;2023-09-19T11:30:37;25.90;79.00
5617;DHT22;2830;50.656;7.568;2023-09-19T11:33:24;25.90;78.10
5617;DHT22;2830;50.656;7.568;2023-09-19T11:46:33;25.60;84.50
5617;DHT22;2830;50.656;7.568;2023-09-19T11:49:08;26.60;77.90
5617;DHT22;2830;50.656;7.568;2023-09-19T11:51:41;26.80;76.10
5617;DHT22;2830;50.656;7.568;2023-09-19T11:54:14;27.70;74.10
5617;DHT22;2830;50.656;7.568;2023-09-19T11:56:45;27.60;74.00
5617;DHT22;2830;50.656;7.568;2023-09-19T11:59:20;26.70;72.50
5617;DHT22;2830;50.656;7.568;2023-09-19T12:02:17;27.50;70.00
5617;DHT22;2830;50.656;7.568;2023-09-19T12:04:42;27.30;73.50
5617;DHT22;2830;50.656;7.568;2023-09-19T12:07:12;26.70;71.50
5617;DHT22;2830;50.656;7.568;2023-09-19T12:09:44;26.60;72.90
5617;DHT22;2830;50.656;7.568;2023-09-19T12:14:50;27.10;69.00
5617;DHT22;2830;50.656;7.568;2023-09-19T12:17:17;26.20;69.70
5617;DHT22;2830;50.656;7.568;2023-09-19T12:19:52;25.60;75.60
5617;DHT22;2830;50.656;7.568;2023-09-19T12:22:19;25.30;72.00
5617;DHT22;2830;50.656;7.568;2023-09-19T12:24:47;25.50;72.50
5617;DHT22;2830;50.656;7.568;2023-09-19T12:27:15;25.40;73.00
5617;DHT22;2830;50.656;7.568;2023-09-19T12:29:46;26.30;72.00
5617;DHT22;2830;50.656;7.568;2023-09-19T12:32:16;27.80;70.20
5617;DHT22;2830;50.656;7.568;2023-09-19T12:34:51;28.70;70.10
5617;DHT22;2830;50.656;7.568;2023-09-19T12:37:20;29.40;67.30
5617;DHT22;2830;50.656;7.568;2023-09-19T12:40:04;30.00;66.10
5617;DHT22;2830;50.656;7.568;2023-09-19T12:42:42;30.20;61.70
5617;DHT22;2830;50.656;7.568;2023-09-19T12:45:09;29.90;62.70
5617;DHT22;2830;50.656;7.568;2023-09-19T12:47:36;29.40;61.70
5617;DHT22;2830;50.656;7.568;2023-09-19T12:50:14;29.40;61.70
5617;DHT22;2830;50.656;7.568;2023-09-19T12:52:47;28.40;63.00
5617;DHT22;2830;50.656;7.568;2023-09-19T12:55:23;27.30;62.70
5617;DHT22;2830;50.656;7.568;2023-09-19T12:58:19;26.90;64.40
5617;DHT22;2830;50.656;7.568;2023-09-19T13:00:46;26.60;64.90
5617;DHT22;2830;50.656;7.568;2023-09-19T13:03:27;25.50;69.00
5617;DHT22;2830;50.656;7.568;2023-09-19T13:06:00;25.60;68.10
5617;DHT22;2830;50.656;7.568;2023-09-19T13:08:31;25.60;69.70
5617;DHT22;2830;50.656;7.568;2023-09-19T13:11:07;25.00;71.40
5617;DHT22;2830;50.656;7.568;2023-09-19T13:13:44;25.00;71.40
5617;DHT22;2830;50.656;7.568;2023-09-19T13:16:16;25.30;70.80
5617;DHT22;2830;50.656;7.568;2023-09-19T13:18:50;25.20;69.90
5617;DHT22;2830;50.656;7.568;2023-09-19T13:21:28;24.90;70.20
5617;DHT22;2830;50.656;7.568;2023-09-19T13:23:56;24.30;70.00
5617;DHT22;2830;50.656;7.568;2023-09-19T13:26:28;23.80;73.10
5617;DHT22;2830;50.656;7.568;2023-09-19T13:28:56;23.40;74.60
5617;DHT22;2830;50.656;7.568;2023-09-19T13:31:22;23.00;75.00
5617;DHT22;2830;50.656;7.568;2023-09-19T13:33:50;22.70;77.80
5617;DHT22;2830;50.656;7.568;2023-09-19T13:36:18;22.50;77.80
5617;DHT22;2830;50.656;7.568;2023-09-19T13:38:45;22.60;83.00
5617;DHT22;2830;50.656;7.568;2023-09-19T13:41:15;22.70;80.60
5617;DHT22;2830;50.656;7.568;2023-09-19T13:43:43;22.70;76.80
5617;DHT22;2830;50.656;7.568;2023-09-19T13:46:14;22.40;77.80
5617;DHT22;2830;50.656;7.568;2023-09-19T13:48:43;22.20;80.10
5617;DHT22;2830;50.656;7.568;2023-09-19T13:51:09;22.20;83.40
5617;DHT22;2830;50.656;7.568;2023-09-19T13:53:37;22.20;81.80
5617;DHT22;2830;50.656;7.568;2023-09-19T13:56:04;22.00;79.80
5617;DHT22;2830;50.656;7.568;2023-09-19T13:58:31;21.90;81.50
5617;DHT22;2830;50.656;7.568;2023-09-19T14:01:01;21.80;82.30
5617;DHT22;2830;50.656;7.568;2023-09-19T14:03:28;21.60;82.50
5617;DHT22;2830;50.656;7.568;2023-09-19T14:05:56;21.60;81.50
5617;DHT22;2830;50.656;7.568;2023-09-19T14:08:23;21.60;85.20
5617;DHT22;2830;50.656;7.568;2023-09-19T14:10:51;21.60;84.70
5617;DHT22;2830;50.656;7.568;2023-09-19T14:13:17;21.80;84.90
5617;DHT22;2830;50.656;7.568;2023-09-19T14:15:44;21.70;85.30
5617;DHT22;2830;50.656;7.568;2023-09-19T14:18:11;21.80;85.60
5617;DHT22;2830;50.656;7.568;2023-09-19T14:20:38;21.50;82.90
5617;DHT22;2830;50.656;7.568;2023-09-19T14:23:07;21.30;84.40
5617;DHT22;2830;50.656;7.568;2023-09-19T14:25:36;21.20;84.50
5617;DHT22;2830;50.656;7.568;2023-09-19T14:28:05;21.20;85.50
5617;DHT22;2830;50.656;7.568;2023-09-19T14:30:34;21.10;83.30
5617;DHT22;2830;50.656;7.568;2023-09-19T14:33:01;21.10;85.20
5617;DHT22;2830;50.656;7.568;2023-09-19T14:35:30;21.10;90.40
5617;DHT22;2830;50.656;7.568;2023-09-19T14:37:56;20.90;86.90
5617;DHT22;2830;50.656;7.568;2023-09-19T14:40:23;20.70;87.40
5617;DHT22;2830;50.656;7.568;2023-09-19T14:42:50;20.50;88.10
5617;DHT22;2830;50.656;7.568;2023-09-19T14:45:18;20.50;87.40
5617;DHT22;2830;50.656;7.568;2023-09-19T14:47:50;20.50;88.10
5617;DHT22;2830;50.656;7.568;2023-09-19T14:50:19;20.50;88.80
5617;DHT22;2830;50.656;7.568;2023-09-19T14:52:46;20.50;88.10
5617;DHT22;2830;50.656;7.568;2023-09-19T14:55:12;20.60;89.20
5617;DHT22;2830;50.656;7.568;2023-09-19T14:57:42;20.70;89.10
5617;DHT22;2830;50.656;7.568;2023-09-19T15:00:12;20.70;91.80
5617;DHT22;2830;50.656;7.568;2023-09-19T15:02:40;20.70;90.40
5617;DHT22;2830;50.656;7.568;2023-09-19T15:05:13;20.70;91.50
5617;DHT22;2830;50.656;7.568;2023-09-19T15:07:45;20.70;90.70
5617;DHT22;2830;50.656;7.568;2023-09-19T15:10:12;20.60;90.70
5617;DHT22;2830;50.656;7.568;2023-09-19T15:12:39;20.50;91.80
5617;DHT22;2830;50.656;7.568;2023-09-19T15:15:06;20.60;88.20
5617;DHT22;2830;50.656;7.568;2023-09-19T15:17:35;20.60;89.30
5617;DHT22;2830;50.656;7.568;2023-09-19T15:20:03;20.50;89.50
5617;DHT22;2830;50.656;7.568;2023-09-19T15:22:32;20.50;88.70
5617;DHT22;2830;50.656;7.568;2023-09-19T15:24:58;20.50;89.00
5617;DHT22;2830;50.656;7.568;2023-09-19T15:27:26;20.40;88.20
5617;DHT22;2830;50.656;7.568;2023-09-19T15:29:53;20.40;88.80
5617;DHT22;2830;50.656;7.568;2023-09-19T15:32:19;20.40;89.10
5617;DHT22;2830;50.656;7.568;2023-09-19T15:34:47;20.40;90.10
5617;DHT22;2830;50.656;7.568;2023-09-19T15:37:14;20.40;87.90
5617;DHT22;2830;50.656;7.568;2023-09-19T15:39:41;20.30;89.10
5617;DHT22;2830;50.656;7.568;2023-09-19T15:42:08;20.10;89.00
5617;DHT22;2830;50.656;7.568;2023-09-19T15:44:35;20.10;89.70
5617;DHT22;2830;50.656;7.568;2023-09-19T15:47:03;20.10;90.20
5617;DHT22;2830;50.656;7.568;2023-09-19T15:49:30;20.10;91.40
5617;DHT22;2830;50.656;7.568;2023-09-19T15:51:57;20.10;90.60
5617;DHT22;2830;50.656;7.568;2023-09-19T15:54:25;20.00;90.70
5617;DHT22;2830;50.656;7.568;2023-09-19T15:56:53;20.00;91.10
5617;DHT22;2830;50.656;7.568;2023-09-19T15:59:21;19.90;89.90
5617;DHT22;2830;50.656;7.568;2023-09-19T16:01:48;19.80;90.70
5617;DHT22;2830;50.656;7.568;2023-09-19T16:04:17;19.70;91.60
5617;DHT22;2830;50.656;7.568;2023-09-19T16:06:44;19.50;90.90
5617;DHT22;2830;50.656;7.568;2023-09-19T16:09:10;19.40;91.60
5617;DHT22;2830;50.656;7.568;2023-09-19T16:11:37;19.30;91.40
5617;DHT22;2830;50.656;7.568;2023-09-19T16:14:04;19.30;92.30
5617;DHT22;2830;50.656;7.568;2023-09-19T16:16:36;19.20;92.40
5617;DHT22;2830;50.656;7.568;2023-09-19T16:19:04;19.20;92.60
5617;DHT22;2830;50.656;7.568;2023-09-19T16:21:36;19.30;93.80
5617;DHT22;2830;50.656;7.568;2023-09-19T16:24:04;19.30;92.70
5617;DHT22;2830;50.656;7.568;2023-09-19T16:26:35;19.30;93.10
5617;DHT22;2830;50.656;7.568;2023-09-19T16:29:01;19.40;92.90
5617;DHT22;2830;50.656;7.568;2023-09-19T16:31:29;19.30;92.90
5617;DHT22;2830;50.656;7.568;2023-09-19T16:33:57;19.30;93.60
5617;DHT22;2830;50.656;7.568;2023-09-19T16:36:26;19.30;93.20
5617;DHT22;2830;50.656;7.568;2023-09-19T16:38:53;19.20;93.50
5617;DHT22;2830;50.656;7.568;2023-09-19T16:41:20;19.10;95.50
5617;DHT22;2830;50.656;7.568;2023-09-19T16:43:47;19.00;94.20
5617;DHT22;2830;50.656;7.568;2023-09-19T16:46:14;19.00;94.80
5617;DHT22;2830;50.656;7.568;2023-09-19T16:48:45;18.90;95.60
5617;DHT22;2830;50.656;7.568;2023-09-19T16:51:20;18.90;95.40
5617;DHT22;2830;50.656;7.568;2023-09-19T16:53:47;18.80;95.70
5617;DHT22;2830;50.656;7.568;2023-09-19T16:56:19;18.90;95.60
5617;DHT22;2830;50.656;7.568;2023-09-19T16:58:47;18.90;96.30
5617;DHT22;2830;50.656;7.568;2023-09-19T17:01:16;18.90;97.00
5617;DHT22;2830;50.656;7.568;2023-09-19T17:03:45;19.00;95.90